Time;durP1;ratioP1;P1;durP2;ratioP2;P2;SDS_P1;SDS_P2;PMS_P1;PMS_P2;Temp;Humidity;BMP_temperature;BMP_pressure;BME280_temperature;BME280_humidity;BME280_pressure;Samples;Min_cycle;Max_cycle;Signal;HPM_P1;HPM_P2
2022/11/06 00:02:20;;;;;;;;;;;9.50;99.90;;;;;;5000539;28;19925;-88
2022/11/06 00:04:46;;;;;;;;;;;9.70;99.90;;;;;;5000592;28;20265;-88
2022/11/06 00:07:11;;;;;;;;;;;9.50;99.90;;;;;;5016018;28;19948;-89
2022/11/06 00:09:37;;;;;;;;;;;9.40;99.90;;;;;;4983980;28;19926;-88
2022/11/06 00:12:03;;;;;;;;;;;9.80;99.90;;;;;;5000246;28;19936;-88
2022/11/06 00:14:28;;;;;;;;;;;9.50;99.90;;;;;;5000261;28;19933;-89
2022/11/06 00:16:54;;;;;;;;;;;9.50;99.90;;;;;;5000302;28;20059;-88
2022/11/06 00:19:20;;;;;;;;;;;9.50;99.90;;;;;;5016218;28;20361;-87
2022/11/06 00:21:45;;;;;;;;;;;9.40;99.90;;;;;;5001026;28;20003;-88
2022/11/06 00:24:12;;;;;;;;;;;9.50;99.90;;;;;;5016555;28;19931;-87
2022/11/06 00:26:38;;;;;;;;;;;10.80;99.90;;;;;;5016675;28;19968;-88
2022/11/06 00:29:04;;;;;;;;;;;9.30;99.90;;;;;;5000308;28;19976;-88
2022/11/06 00:31:31;;;;;;;;;;;9.40;99.90;;;;;;5000334;28;19925;-87
2022/11/06 00:33:57;;;;;;;;;;;9.40;99.90;;;;;;5000105;28;19932;-87
2022/11/06 00:36:24;;;;;;;;;;;9.30;99.90;;;;;;5016922;28;19929;-88
2022/11/06 00:38:50;;;;;;;;;;;9.40;99.90;;;;;;5002123;28;19925;-88
2022/11/06 00:41:16;;;;;;;;;;;9.40;99.90;;;;;;5002185;28;20283;-88
2022/11/06 00:43:46;;;;;;;;;;;9.20;99.90;;;;;;5005491;28;20016;-87
2022/11/06 00:46:12;;;;;;;;;;;9.10;99.90;;;;;;5005615;28;20365;-88
2022/11/06 00:48:38;;;;;;;;;;;9.70;99.90;;;;;;5022416;28;20329;-88
2022/11/06 00:51:09;;;;;;;;;;;9.10;99.90;;;;;;5005623;28;19926;-87
2022/11/06 00:53:35;;;;;;;;;;;9.10;99.90;;;;;;5024343;28;19996;-87
2022/11/06 00:56:05;;;;;;;;;;;9.00;99.90;;;;;;5043459;28;19920;-88
2022/11/06 00:58:31;;;;;;;;;;;9.00;99.90;;;;;;5028498;28;19909;-87
2022/11/06 01:01:06;;;;;;;;;;;7.60;99.90;;;;;;5028351;28;19920;-88
2022/11/06 01:03:32;;;;;;;;;;;9.00;99.90;;;;;;5028291;28;19913;-87
2022/11/06 01:06:05;;;;;;;;;;;8.90;99.90;;;;;;5028403;28;19924;-88
2022/11/06 01:08:30;;;;;;;;;;;8.90;99.90;;;;;;5043938;28;19925;-88
2022/11/06 01:10:56;;;;;;;;;;;10.10;99.90;;;;;;5011384;28;19931;-88
2022/11/06 01:13:22;;;;;;;;;;;8.80;99.90;;;;;;5024665;28;19925;-90
2022/11/06 01:15:47;;;;;;;;;;;8.90;99.90;;;;;;5008062;28;19969;-88
2022/11/06 01:18:13;;;;;;;;;;;8.90;99.90;;;;;;5007339;28;19976;-88
2022/11/06 01:20:39;;;;;;;;;;;9.40;99.90;;;;;;5008673;28;20340;-89
2022/11/06 01:23:04;;;;;;;;;;;8.90;99.90;;;;;;5011275;28;19929;-88
2022/11/06 01:25:30;;;;;;;;;;;9.00;99.90;;;;;;5039680;28;19979;-88
2022/11/06 01:27:55;;;;;;;;;;;9.10;99.90;;;;;;5011754;28;19913;-87
2022/11/06 01:30:24;;;;;;;;;;;8.50;99.90;;;;;;5044333;28;19972;-88
2022/11/06 01:32:49;;;;;;;;;;;8.90;99.90;;;;;;5037799;28;20063;-88
2022/11/06 01:35:15;;;;;;;;;;;8.80;99.90;;;;;;5021211;28;19913;-88
2022/11/06 01:37:41;;;;;;;;;;;8.80;99.90;;;;;;5009956;28;19956;-89
2022/11/06 01:40:07;;;;;;;;;;;8.90;99.90;;;;;;5021176;28;20366;-88
2022/11/06 01:42:32;;;;;;;;;;;8.80;99.90;;;;;;5038316;28;19983;-88
2022/11/06 01:45:18;;;;;;;;;;;8.80;99.90;;;;;;5020303;28;19948;-88
2022/11/06 01:47:44;;;;;;;;;;;7.70;99.90;;;;;;5003006;28;19929;-87
2022/11/06 01:50:10;;;;;;;;;;;8.80;99.90;;;;;;5003414;28;19931;-87
2022/11/06 01:52:36;;;;;;;;;;;8.80;99.90;;;;;;5004164;28;19925;-87
2022/11/06 01:55:10;;;;;;;;;;;8.80;99.90;;;;;;5003795;28;19925;-88
2022/11/06 01:57:36;;;;;;;;;;;8.80;99.90;;;;;;5004153;28;20293;-89
2022/11/06 02:00:03;;;;;;;;;;;8.80;99.90;;;;;;5019832;28;19926;-88
2022/11/06 02:02:28;;;;;;;;;;;8.70;99.90;;;;;;5003474;28;20337;-88
2022/11/06 02:04:54;;;;;;;;;;;8.70;99.90;;;;;;5003442;28;19925;-87
2022/11/06 02:07:20;;;;;;;;;;;8.90;99.90;;;;;;5015961;28;19947;-88
2022/11/06 02:09:45;;;;;;;;;;;8.70;99.90;;;;;;5020246;28;20429;-88
2022/11/06 02:12:19;;;;;;;;;;;8.80;99.90;;;;;;5003491;28;19975;-87
2022/11/06 02:14:45;;;;;;;;;;;8.70;99.90;;;;;;5020254;28;19991;-87
2022/11/06 02:17:20;;;;;;;;;;;8.90;99.90;;;;;;5004119;28;19925;-87
2022/11/06 02:19:55;;;;;;;;;;;8.70;99.90;;;;;;5003688;28;19933;-87
2022/11/06 02:22:36;;;;;;;;;;;8.60;99.90;;;;;;5003225;28;19944;-87
2022/11/06 02:25:08;;;;;;;;;;;8.90;99.90;;;;;;5003344;28;19925;-88
2022/11/06 02:27:34;;;;;;;;;;;8.70;99.90;;;;;;5019997;28;19925;-88
2022/11/06 02:30:20;;;;;;;;;;;8.70;99.90;;;;;;5018520;28;20289;-87
2022/11/06 02:33:00;;;;;;;;;;;8.70;99.90;;;;;;5018837;28;19925;-88
2022/11/06 02:35:28;;;;;;;;;;;8.50;99.90;;;;;;5002242;28;20361;-88
2022/11/06 02:37:57;;;;;;;;;;;8.70;99.90;;;;;;5018621;28;20373;-88
2022/11/06 02:40:25;;;;;;;;;;;8.70;99.90;;;;;;5003139;28;19936;-88
2022/11/06 02:42:53;;;;;;;;;;;8.70;99.90;;;;;;5018840;28;19925;-88
2022/11/06 02:45:20;;;;;;;;;;;7.30;99.90;;;;;;5018119;28;20452;-88
2022/11/06 02:47:48;;;;;;;;;;;8.70;99.90;;;;;;5018341;28;20265;-88
2022/11/06 02:50:23;;;;;;;;;;;8.70;99.90;;;;;;5001725;28;19932;-88
2022/11/06 02:52:58;;;;;;;;;;;8.70;99.90;;;;;;5001943;28;20026;-88
2022/11/06 02:55:30;;;;;;;;;;;8.70;99.90;;;;;;5017683;28;20329;-88
2022/11/06 02:57:59;;;;;;;;;;;8.80;99.90;;;;;;5017529;28;19925;-88
2022/11/06 03:00:26;;;;;;;;;;;8.70;99.90;;;;;;5018170;28;19925;-88
2022/11/06 03:02:54;;;;;;;;;;;9.10;99.90;;;;;;5002057;28;19925;-88
2022/11/06 03:05:25;;;;;;;;;;;8.60;99.90;;;;;;5001195;28;19925;-89
2022/11/06 03:08:02;;;;;;;;;;;8.60;99.90;;;;;;5000671;28;19940;-88
2022/11/06 03:10:31;;;;;;;;;;;8.70;99.90;;;;;;5018487;28;20015;-88
2022/11/06 03:13:23;;;;;;;;;;;8.80;99.90;;;;;;5017551;28;20345;-88
2022/11/06 03:16:04;;;;;;;;;;;9.00;99.90;;;;;;4999820;28;19925;-88
2022/11/06 03:18:41;;;;;;;;;;;8.70;99.90;;;;;;5017601;28;19932;-88
2022/11/06 03:21:11;;;;;;;;;;;8.70;99.90;;;;;;5017838;28;19932;-88
2022/11/06 03:23:56;;;;;;;;;;;7.50;99.90;;;;;;5000885;28;20047;-89
2022/11/06 03:26:34;;;;;;;;;;;8.60;99.90;;;;;;5016170;28;19925;-88
2022/11/06 03:29:06;;;;;;;;;;;8.60;99.90;;;;;;5000852;28;20412;-87
2022/11/06 03:31:35;;;;;;;;;;;8.60;99.90;;;;;;5001161;28;19932;-89
2022/11/06 03:34:03;;;;;;;;;;;8.60;99.90;;;;;;5016997;28;19932;-89
2022/11/06 03:36:49;;;;;;;;;;;9.10;99.90;;;;;;5001309;28;19925;-88
2022/11/06 03:39:18;;;;;;;;;;;8.60;99.90;;;;;;5016220;28;19976;-88
2022/11/06 03:41:47;;;;;;;;;;;8.80;99.90;;;;;;5000759;28;20293;-88
2022/11/06 03:44:14;;;;;;;;;;;8.60;99.90;;;;;;5017321;28;20052;-88
2022/11/06 03:46:42;;;;;;;;;;;8.60;99.90;;;;;;5000573;28;20020;-88
2022/11/06 03:49:10;;;;;;;;;;;8.70;99.90;;;;;;5000772;28;19925;-89
2022/11/06 03:51:43;;;;;;;;;;;8.80;99.90;;;;;;5000470;28;19925;-88
2022/11/06 03:54:41;;;;;;;;;;;8.80;99.90;;;;;;5016852;28;19925;-89
2022/11/06 03:57:12;;;;;;;;;;;7.20;99.90;;;;;;4963600;28;19925;-89
2022/11/06 03:59:41;;;;;;;;;;;8.60;99.90;;;;;;5017635;28;19925;-88
2022/11/06 04:02:06;;;;;;;;;;;8.90;99.90;;;;;;5000556;28;20357;-87
2022/11/06 04:04:49;;;;;;;;;;;8.80;99.90;;;;;;4983906;28;19980;-88
2022/11/06 04:07:18;;;;;;;;;;;8.60;99.90;;;;;;4999625;28;20016;-87
2022/11/06 04:15:31;;;;;;;;;;;8.70;99.90;;;;;;4946822;28;19927;-88
2022/11/06 04:17:56;;;;;;;;;;;8.70;99.90;;;;;;5017195;28;20262;-88
2022/11/06 04:23:07;;;;;;;;;;;8.90;99.90;;;;;;5016790;28;20011;-88
2022/11/06 04:28:34;;;;;;;;;;;7.60;99.90;;;;;;5017233;28;19948;-88
2022/11/06 04:31:06;;;;;;;;;;;8.70;99.90;;;;;;5016454;28;20388;-87
2022/11/06 04:33:35;;;;;;;;;;;8.70;99.90;;;;;;5016295;28;19925;-88
2022/11/06 04:36:06;;;;;;;;;;;8.70;99.90;;;;;;4999827;28;19983;-90
2022/11/06 04:38:40;;;;;;;;;;;8.70;99.90;;;;;;5016506;28;20012;-89
2022/11/06 04:41:25;;;;;;;;;;;8.40;99.90;;;;;;5000314;28;20276;-88
2022/11/06 04:43:53;;;;;;;;;;;8.70;99.90;;;;;;4999671;28;19969;-88
2022/11/06 04:46:20;;;;;;;;;;;8.70;99.90;;;;;;4999965;28;19926;-89
2022/11/06 04:48:47;;;;;;;;;;;8.40;99.90;;;;;;4999690;28;19932;-88
2022/11/06 04:51:14;;;;;;;;;;;8.70;99.90;;;;;;5033645;28;20012;-88
2022/11/06 04:53:40;;;;;;;;;;;8.70;99.90;;;;;;5000601;28;19979;-88
2022/11/06 04:56:08;;;;;;;;;;;8.70;99.90;;;;;;4999811;28;19925;-88
2022/11/06 04:58:34;;;;;;;;;;;8.70;99.90;;;;;;4999996;28;19933;-88
2022/11/06 05:01:00;;;;;;;;;;;8.70;99.90;;;;;;5000720;28;19925;-88
2022/11/06 05:03:25;;;;;;;;;;;8.70;99.90;;;;;;4984467;28;19931;-88
2022/11/06 05:05:51;;;;;;;;;;;8.70;99.90;;;;;;4984474;28;20324;-88
2022/11/06 05:08:18;;;;;;;;;;;8.80;99.90;;;;;;5015549;28;19925;-88
2022/11/06 05:10:44;;;;;;;;;;;8.70;99.90;;;;;;5016146;28;19925;-88
2022/11/06 05:13:10;;;;;;;;;;;8.70;99.90;;;;;;5000182;28;19932;-88
2022/11/06 05:15:36;;;;;;;;;;;8.70;99.90;;;;;;4999316;28;19925;-87
2022/11/06 05:18:02;;;;;;;;;;;8.80;99.90;;;;;;5016708;28;19932;-88
2022/11/06 05:20:28;;;;;;;;;;;8.70;99.90;;;;;;4999217;28;19925;-88
2022/11/06 05:22:56;;;;;;;;;;;8.70;99.90;;;;;;5016417;28;19925;-89
2022/11/06 05:25:23;;;;;;;;;;;9.00;99.90;;;;;;5000068;28;19980;-88
2022/11/06 05:27:48;;;;;;;;;;;9.20;99.90;;;;;;5001655;28;20022;-88
2022/11/06 05:30:14;;;;;;;;;;;9.00;99.90;;;;;;5003190;28;19925;-88
2022/11/06 05:32:40;;;;;;;;;;;8.60;99.90;;;;;;5003111;28;19927;-88
2022/11/06 05:35:05;;;;;;;;;;;8.80;99.90;;;;;;4987507;28;19925;-89
2022/11/06 05:37:31;;;;;;;;;;;8.70;99.90;;;;;;4987254;28;19932;-88
2022/11/06 05:39:57;;;;;;;;;;;8.70;99.90;;;;;;5002943;28;19925;-88
2022/11/06 05:42:22;;;;;;;;;;;9.00;99.90;;;;;;5002977;28;19975;-89
2022/11/06 05:44:48;;;;;;;;;;;8.90;99.90;;;;;;5003174;28;19947;-88
2022/11/06 05:47:13;;;;;;;;;;;8.90;99.90;;;;;;5002935;28;20373;-88
2022/11/06 05:49:39;;;;;;;;;;;8.90;99.90;;;;;;5002540;28;19925;-88
2022/11/06 05:52:05;;;;;;;;;;;8.50;99.90;;;;;;5019960;28;19929;-88
2022/11/06 05:54:30;;;;;;;;;;;8.80;99.90;;;;;;4986420;28;20012;-88
2022/11/06 05:56:56;;;;;;;;;;;8.70;99.90;;;;;;5019085;28;20365;-87
2022/11/06 05:59:21;;;;;;;;;;;8.70;99.90;;;;;;4986508;28;19925;-88
2022/11/06 06:01:47;;;;;;;;;;;7.00;99.90;;;;;;5018558;28;19925;-89
2022/11/06 06:04:13;;;;;;;;;;;8.70;99.90;;;;;;5018924;28;19929;-87
2022/11/06 06:06:38;;;;;;;;;;;8.70;99.90;;;;;;5002487;28;19972;-88
2022/11/06 06:09:04;;;;;;;;;;;8.70;99.90;;;;;;5001751;28;19976;-88
2022/11/06 06:11:29;;;;;;;;;;;8.70;99.90;;;;;;5002563;28;19925;-88
2022/11/06 06:13:55;;;;;;;;;;;8.70;99.90;;;;;;5018641;28;20383;-89
2022/11/06 06:16:21;;;;;;;;;;;10.10;99.90;;;;;;4985880;28;19925;-88
2022/11/06 06:18:50;;;;;;;;;;;8.70;99.90;;;;;;5002426;28;19932;-88
2022/11/06 06:21:15;;;;;;;;;;;7.40;99.90;;;;;;5003124;28;19925;-88
2022/11/06 06:23:42;;;;;;;;;;;8.70;99.90;;;;;;5002115;28;20259;-87
2022/11/06 06:26:08;;;;;;;;;;;8.80;99.90;;;;;;5002271;28;19978;-88
2022/11/06 06:28:33;;;;;;;;;;;8.70;99.90;;;;;;5001883;28;19968;-88
2022/11/06 06:31:02;;;;;;;;;;;8.70;99.90;;;;;;5002204;28;19988;-88
2022/11/06 06:33:28;;;;;;;;;;;6.90;99.90;;;;;;5001849;28;19979;-88
2022/11/06 06:35:53;;;;;;;;;;;8.70;99.90;;;;;;5018106;28;19925;-88
2022/11/06 06:38:19;;;;;;;;;;;8.80;99.90;;;;;;5001169;28;19925;-88
2022/11/06 06:40:44;;;;;;;;;;;8.70;99.90;;;;;;5017976;28;19925;-89
2022/11/06 06:43:10;;;;;;;;;;;8.60;99.90;;;;;;5018787;28;20068;-89
2022/11/06 06:45:36;;;;;;;;;;;8.60;99.90;;;;;;4985541;28;19925;-88
2022/11/06 06:48:02;;;;;;;;;;;8.90;99.90;;;;;;5001754;28;19925;-89
2022/11/06 06:50:28;;;;;;;;;;;8.80;99.90;;;;;;5001698;28;20344;-87
2022/11/06 06:52:55;;;;;;;;;;;8.60;99.90;;;;;;5002007;28;19926;-88
2022/11/06 06:55:20;;;;;;;;;;;8.70;99.90;;;;;;5017890;28;19925;-89
2022/11/06 06:57:46;;;;;;;;;;;8.70;99.90;;;;;;5017748;28;19932;-89
2022/11/06 07:00:12;;;;;;;;;;;8.70;99.90;;;;;;4985212;28;20016;-89
2022/11/06 07:02:37;;;;;;;;;;;8.70;99.90;;;;;;5017499;28;20388;-87
2022/11/06 07:05:03;;;;;;;;;;;8.70;99.90;;;;;;5001448;28;19925;-88
2022/11/06 07:07:29;;;;;;;;;;;8.80;99.90;;;;;;5001038;28;20274;-89
2022/11/06 07:09:54;;;;;;;;;;;8.80;99.90;;;;;;5001283;28;19980;-88
2022/11/06 07:12:20;;;;;;;;;;;9.00;99.90;;;;;;5001514;28;19926;-88
2022/11/06 07:14:45;;;;;;;;;;;8.80;99.90;;;;;;5003713;28;19925;-88
2022/11/06 07:17:13;;;;;;;;;;;8.90;99.90;;;;;;4984957;28;19948;-89
2022/11/06 07:19:39;;;;;;;;;;;8.90;99.90;;;;;;5017468;28;19925;-88
2022/11/06 07:22:05;;;;;;;;;;;8.90;99.90;;;;;;5001108;28;20062;-88
2022/11/06 07:24:30;;;;;;;;;;;9.40;99.90;;;;;;5017672;28;19925;-88
2022/11/06 07:26:56;;;;;;;;;;;9.00;99.90;;;;;;5001191;28;19925;-88
2022/11/06 07:29:21;;;;;;;;;;;9.00;99.90;;;;;;4985627;28;19932;-88
2022/11/06 07:31:47;;;;;;;;;;;9.00;99.90;;;;;;5017423;28;19925;-88
2022/11/06 07:34:13;;;;;;;;;;;9.40;99.90;;;;;;5000954;28;19937;-88
2022/11/06 07:36:38;;;;;;;;;;;9.10;99.90;;;;;;5016591;28;19925;-88
2022/11/06 07:39:04;;;;;;;;;;;9.20;99.90;;;;;;5000945;28;19936;-88
2022/11/06 07:41:29;;;;;;;;;;;9.20;99.90;;;;;;5017427;28;19925;-88
2022/11/06 07:43:55;;;;;;;;;;;9.20;99.90;;;;;;5000615;28;20281;-88
2022/11/06 07:46:21;;;;;;;;;;;9.20;99.90;;;;;;5017869;28;19925;-88
2022/11/06 07:48:47;;;;;;;;;;;9.30;99.90;;;;;;5017106;28;19932;-88
2022/11/06 07:51:12;;;;;;;;;;;9.30;99.90;;;;;;5000857;28;19978;-88
2022/11/06 07:53:38;;;;;;;;;;;9.40;99.90;;;;;;5017701;28;19929;-87
2022/11/06 07:56:04;;;;;;;;;;;9.30;99.90;;;;;;5017420;28;20024;-88
2022/11/06 07:58:31;;;;;;;;;;;9.30;99.90;;;;;;5016864;28;20011;-88
2022/11/06 08:00:57;;;;;;;;;;;9.50;99.90;;;;;;5016847;28;19932;-88
2022/11/06 08:03:23;;;;;;;;;;;9.30;99.90;;;;;;5001021;28;19929;-86
2022/11/06 08:05:49;;;;;;;;;;;9.20;99.90;;;;;;5034222;28;19980;-88
2022/11/06 08:08:15;;;;;;;;;;;9.40;99.90;;;;;;4983781;28;19925;-87
2022/11/06 08:10:42;;;;;;;;;;;9.30;99.90;;;;;;5000317;28;19930;-89
2022/11/06 08:13:12;;;;;;;;;;;9.30;99.90;;;;;;5016632;28;19925;-89
2022/11/06 08:15:38;;;;;;;;;;;9.20;99.90;;;;;;5000198;28;19948;-88
2022/11/06 08:18:06;;;;;;;;;;;9.30;99.90;;;;;;5000285;28;20318;-91
2022/11/06 08:20:33;;;;;;;;;;;9.30;99.90;;;;;;5002187;28;19925;-90
2022/11/06 08:22:59;;;;;;;;;;;9.30;99.90;;;;;;5001051;28;20269;-91
2022/11/06 08:25:25;;;;;;;;;;;9.40;99.90;;;;;;5016631;28;19932;-90
2022/11/06 08:27:53;;;;;;;;;;;9.30;99.90;;;;;;4983962;28;19925;-88
2022/11/06 08:30:18;;;;;;;;;;;9.90;99.90;;;;;;4999623;28;19925;-89
2022/11/06 08:32:44;;;;;;;;;;;9.30;99.90;;;;;;5000200;28;19925;-90
2022/11/06 08:35:09;;;;;;;;;;;9.30;99.90;;;;;;5000708;28;19925;-89
2022/11/06 08:37:35;;;;;;;;;;;9.50;99.90;;;;;;5016279;28;19925;-90
2022/11/06 08:40:01;;;;;;;;;;;9.80;99.90;;;;;;5016466;28;19932;-92
2022/11/06 08:42:32;;;;;;;;;;;7.90;99.90;;;;;;4999937;28;19925;-94
2022/11/06 08:44:58;;;;;;;;;;;9.50;99.90;;;;;;5001016;28;19932;-93
2022/11/06 08:47:24;;;;;;;;;;;9.50;99.90;;;;;;5001899;28;19925;-94
2022/11/06 08:49:59;;;;;;;;;;;;;;;;;;;;;
2022/11/06 08:52:25;;;;;;;;;;;10.00;99.90;;;;;;5017812;28;19925;-93
2022/11/06 08:54:51;;;;;;;;;;;9.60;99.90;;;;;;5000305;28;19925;-94
2022/11/06 08:57:17;;;;;;;;;;;9.70;99.90;;;;;;5001779;28;20380;-94
2022/11/06 08:59:45;;;;;;;;;;;9.60;99.90;;;;;;5001136;28;20385;-90
2022/11/06 09:02:11;;;;;;;;;;;9.70;99.90;;;;;;4985448;28;19925;-89
2022/11/06 09:04:37;;;;;;;;;;;9.80;99.90;;;;;;5004009;28;20468;-91
2022/11/06 09:07:02;;;;;;;;;;;9.90;99.90;;;;;;4991193;28;19933;-91
2022/11/06 09:09:30;;;;;;;;;;;9.90;99.90;;;;;;5007306;28;19925;-90
2022/11/06 09:12:00;;;;;;;;;;;9.70;99.90;;;;;;5004407;28;20019;-91
2022/11/06 09:14:25;;;;;;;;;;;9.90;99.90;;;;;;5004467;28;19947;-90
2022/11/06 09:16:51;;;;;;;;;;;9.90;99.90;;;;;;5022350;28;19926;-88
2022/11/06 09:19:17;;;;;;;;;;;10.20;99.90;;;;;;5021552;28;19925;-92
2022/11/06 09:21:45;;;;;;;;;;;10.10;99.90;;;;;;5005505;28;19983;-91
2022/11/06 09:24:16;;;;;;;;;;;10.70;99.90;;;;;;5004357;28;20309;-92
2022/11/06 09:26:47;;;;;;;;;;;9.20;99.90;;;;;;5004661;28;19925;-94
2022/11/06 09:29:16;;;;;;;;;;;10.50;99.90;;;;;;5003873;28;19929;-94
2022/11/06 09:31:47;;;;;;;;;;;10.60;99.90;;;;;;5022607;28;19924;-92
2022/11/06 09:34:12;;;;;;;;;;;10.50;99.90;;;;;;5003658;28;19929;-91
2022/11/06 09:36:38;;;;;;;;;;;10.40;99.90;;;;;;5003443;28;19925;-88
2022/11/06 09:45:50;;;;;;;;;;;10.30;99.90;;;;;;4939862;28;19958;-92
2022/11/06 09:48:29;;;;;;;;;;;10.40;99.90;;;;;;4906170;29;19934;-93
2022/11/06 09:51:15;;;;;;;;;;;10.70;99.90;;;;;;4951514;28;20376;-93
2022/11/06 09:53:57;;;;;;;;;;;10.60;99.90;;;;;;5003345;28;19925;-93
2022/11/06 09:56:36;;;;;;;;;;;10.60;99.90;;;;;;5004805;28;19936;-93
2022/11/06 09:59:06;;;;;;;;;;;10.70;99.90;;;;;;5008094;28;19949;-91
2022/11/06 10:01:41;;;;;;;;;;;10.90;99.90;;;;;;5005806;28;20389;-93
2022/11/06 10:04:21;;;;;;;;;;;10.80;99.90;;;;;;5003899;28;20316;-93
2022/11/06 10:07:17;;;;;;;;;;;;;;;;;;;;;
2022/11/06 10:09:49;;;;;;;;;;;11.00;99.90;;;;;;5019399;28;19925;-92
2022/11/06 10:12:56;;;;;;;;;;;10.90;99.90;;;;;;4987179;28;19925;-93
2022/11/06 10:15:56;;;;;;;;;;;11.50;99.90;;;;;;5018928;28;19978;-91
2022/11/06 10:18:56;;;;;;;;;;;11.30;99.90;;;;;;4995130;28;19925;-92
2022/11/06 10:21:23;;;;;;;;;;;11.40;99.90;;;;;;5003668;28;19925;-92
2022/11/06 10:24:12;;;;;;;;;;;11.20;99.90;;;;;;5002650;28;19925;-91
2022/11/06 10:26:39;;;;;;;;;;;11.80;99.90;;;;;;5003172;28;19925;-94
2022/11/06 10:29:10;;;;;;;;;;;11.40;99.90;;;;;;5002674;28;19980;-94
2022/11/06 10:31:58;;;;;;;;;;;11.40;99.90;;;;;;5003053;28;19925;-91
2022/11/06 10:34:35;;;;;;;;;;;11.20;99.90;;;;;;5002513;28;19925;-94
2022/11/06 10:37:31;;;;;;;;;;;11.20;99.90;;;;;;5003301;28;19925;-93
2022/11/06 10:40:05;;;;;;;;;;;11.50;99.90;;;;;;5002358;28;19948;-92
2022/11/06 10:42:37;;;;;;;;;;;11.40;99.90;;;;;;5002748;28;19968;-92
2022/11/06 10:45:05;;;;;;;;;;;11.30;99.90;;;;;;5002904;28;19929;-93
2022/11/06 10:47:49;;;;;;;;;;;11.50;99.90;;;;;;5002009;28;19932;-92
2022/11/06 10:50:32;;;;;;;;;;;11.50;99.90;;;;;;5003195;28;19926;-94
2022/11/06 10:53:14;;;;;;;;;;;11.70;99.90;;;;;;5002328;28;20076;-92
2022/11/06 10:55:55;;;;;;;;;;;11.50;99.90;;;;;;5001256;28;19925;-92
2022/11/06 10:58:36;;;;;;;;;;;11.30;99.90;;;;;;5002405;28;19925;-94
2022/11/06 11:03:56;;;;;;;;;;;12.10;99.90;;;;;;5025192;28;19933;-92
2022/11/06 11:06:44;;;;;;;;;;;11.80;99.90;;;;;;5007448;28;19929;-91
2022/11/06 11:09:24;;;;;;;;;;;11.60;99.90;;;;;;5001706;28;19926;-94
2022/11/06 11:12:00;;;;;;;;;;;11.30;99.90;;;;;;5001611;28;19925;-91
2022/11/06 11:14:28;;;;;;;;;;;11.40;99.90;;;;;;5034569;28;19932;-93
2022/11/06 11:16:56;;;;;;;;;;;11.30;99.90;;;;;;5001172;28;19933;-91
2022/11/06 11:19:40;;;;;;;;;;;11.30;99.90;;;;;;5001165;28;20277;-91
2022/11/06 11:22:15;;;;;;;;;;;11.30;99.90;;;;;;5001408;28;20307;-92
2022/11/06 11:24:57;;;;;;;;;;;11.40;99.90;;;;;;5000778;28;19964;-90
2022/11/06 11:27:29;;;;;;;;;;;11.20;99.90;;;;;;5001232;28;19929;-92
2022/11/06 11:29:55;;;;;;;;;;;11.30;99.90;;;;;;5001136;28;19925;-91
2022/11/06 11:32:21;;;;;;;;;;;11.40;99.90;;;;;;5001082;28;20425;-92
2022/11/06 11:34:49;;;;;;;;;;;11.00;99.90;;;;;;5017556;28;19973;-92
2022/11/06 11:37:20;;;;;;;;;;;11.20;99.90;;;;;;5000841;28;19925;-92
2022/11/06 11:39:46;;;;;;;;;;;11.00;99.90;;;;;;5001061;28;19925;-91
2022/11/06 11:42:17;;;;;;;;;;;11.60;99.90;;;;;;4984984;28;19932;-90
2022/11/06 11:44:43;;;;;;;;;;;11.10;99.90;;;;;;5000977;28;19929;-90
2022/11/06 11:47:35;;;;;;;;;;;11.00;99.90;;;;;;5000885;28;20060;-90
2022/11/06 11:50:18;;;;;;;;;;;11.00;99.90;;;;;;4995930;28;19925;-91
2022/11/06 11:52:53;;;;;;;;;;;11.10;99.90;;;;;;5000675;28;19925;-89
2022/11/06 11:55:20;;;;;;;;;;;11.20;99.90;;;;;;5000385;28;19932;-88
2022/11/06 11:57:47;;;;;;;;;;;11.20;99.90;;;;;;5001193;28;19931;-90
2022/11/06 12:00:15;;;;;;;;;;;11.10;99.90;;;;;;4999660;28;20280;-89
2022/11/06 12:02:50;;;;;;;;;;;11.30;99.90;;;;;;5000396;28;20293;-90
2022/11/06 12:05:21;;;;;;;;;;;10.70;99.90;;;;;;5000145;28;19929;-91
2022/11/06 12:07:48;;;;;;;;;;;11.20;99.90;;;;;;5017344;28;19925;-89
2022/11/06 12:10:20;;;;;;;;;;;11.50;99.90;;;;;;5015936;28;19925;-90
2022/11/06 12:12:50;;;;;;;;;;;11.40;99.90;;;;;;5001160;28;20016;-91
2022/11/06 12:15:20;;;;;;;;;;;11.10;99.90;;;;;;4983960;28;19925;-89
2022/11/06 12:17:58;;;;;;;;;;;11.10;99.90;;;;;;5000453;28;19925;-91
2022/11/06 12:20:40;;;;;;;;;;;11.00;99.90;;;;;;5000759;28;19925;-92
2022/11/06 12:23:10;;;;;;;;;;;11.20;99.90;;;;;;5017483;28;19979;-91
2022/11/06 12:25:38;;;;;;;;;;;11.10;99.90;;;;;;4999965;28;19925;-89
2022/11/06 12:28:06;;;;;;;;;;;11.10;99.90;;;;;;5000377;28;19929;-88
2022/11/06 12:30:32;;;;;;;;;;;11.20;99.90;;;;;;4999670;28;19925;-88
2022/11/06 12:33:04;;;;;;;;;;;11.30;99.90;;;;;;4999889;28;19972;-88
2022/11/06 12:35:32;;;;;;;;;;;11.40;99.90;;;;;;4999459;28;19976;-88
2022/11/06 12:38:10;;;;;;;;;;;11.70;99.90;;;;;;5018266;28;19932;-88
2022/11/06 12:40:44;;;;;;;;;;;11.50;99.90;;;;;;5004727;28;19932;-89
2022/11/06 12:43:15;;;;;;;;;;;11.70;99.90;;;;;;5004249;28;19925;-89
2022/11/06 12:45:52;;;;;;;;;;;11.80;99.90;;;;;;5003881;28;20016;-88
2022/11/06 12:48:28;;;;;;;;;;;11.60;99.90;;;;;;5004131;28;19932;-88
2022/11/06 12:51:07;;;;;;;;;;;11.90;99.90;;;;;;5004336;28;19925;-88
2022/11/06 12:53:59;;;;;;;;;;;12.00;99.90;;;;;;5020302;28;20056;-87
2022/11/06 12:56:42;;;;;;;;;;;12.20;99.90;;;;;;5002155;28;19925;-87
2022/11/06 12:59:26;;;;;;;;;;;12.00;99.90;;;;;;5019899;28;19925;-88
2022/11/06 13:02:01;;;;;;;;;;;11.90;99.90;;;;;;5005287;28;19932;-88
2022/11/06 13:04:39;;;;;;;;;;;11.90;99.90;;;;;;5020610;28;19925;-87
2022/11/06 13:07:24;;;;;;;;;;;11.90;99.90;;;;;;5004026;28;19929;-87
2022/11/06 13:10:19;;;;;;;;;;;11.90;99.90;;;;;;5003167;28;19925;-88
2022/11/06 13:12:55;;;;;;;;;;;11.90;99.90;;;;;;4917980;28;19926;-90
2022/11/06 13:15:39;;;;;;;;;;;11.80;99.90;;;;;;5003846;28;20262;-89
2022/11/06 13:18:05;;;;;;;;;;;11.80;99.90;;;;;;5004589;28;19933;-88
2022/11/06 13:20:49;;;;;;;;;;;11.80;99.90;;;;;;5005435;28;19926;-90
2022/11/06 13:23:18;;;;;;;;;;;11.70;99.90;;;;;;5005247;28;19925;-89
2022/11/06 13:25:47;;;;;;;;;;;11.70;99.90;;;;;;5023707;28;19925;-90
2022/11/06 13:28:32;;;;;;;;;;;11.40;99.90;;;;;;5007141;28;19929;-88
2022/11/06 13:30:59;;;;;;;;;;;12.20;99.90;;;;;;5007134;28;20019;-89
2022/11/06 13:33:31;;;;;;;;;;;11.80;99.90;;;;;;5013075;28;19916;-90
2022/11/06 13:35:57;;;;;;;;;;;11.70;99.90;;;;;;5043890;28;19937;-90
2022/11/06 13:38:28;;;;;;;;;;;11.70;99.90;;;;;;5026171;28;20016;-89
2022/11/06 13:41:03;;;;;;;;;;;11.60;99.90;;;;;;5027428;28;19937;-89
2022/11/06 13:43:55;;;;;;;;;;;11.40;99.90;;;;;;5027689;28;19916;-89
2022/11/06 13:46:40;;;;;;;;;;;11.80;99.90;;;;;;5022874;28;19920;-91
2022/11/06 13:49:16;;;;;;;;;;;11.70;99.90;;;;;;5027592;28;19909;-91
2022/11/06 13:52:00;;;;;;;;;;;11.60;99.90;;;;;;5013102;28;19931;-90
2022/11/06 13:54:37;;;;;;;;;;;10.30;99.90;;;;;;5010075;28;19925;-89
2022/11/06 13:57:15;;;;;;;;;;;11.50;99.90;;;;;;5011252;28;19968;-89
2022/11/06 13:59:56;;;;;;;;;;;11.70;99.90;;;;;;5016264;28;19965;-88
2022/11/06 14:02:43;;;;;;;;;;;11.60;99.90;;;;;;5025468;28;19967;-90
2022/11/06 14:05:11;;;;;;;;;;;11.70;99.90;;;;;;5027005;28;19909;-91
2022/11/06 14:07:38;;;;;;;;;;;11.50;99.90;;;;;;5021779;28;19931;-91
2022/11/06 14:10:04;;;;;;;;;;;11.60;99.90;;;;;;5025477;28;19936;-89
2022/11/06 14:12:30;;;;;;;;;;;11.50;99.90;;;;;;5027099;28;19913;-91
2022/11/06 14:15:16;;;;;;;;;;;10.30;99.90;;;;;;5025198;28;19916;-89
2022/11/06 14:18:08;;;;;;;;;;;;;;;;;;;;;
2022/11/06 14:20:38;;;;;;;;;;;12.50;99.90;;;;;;5019291;28;19931;-93
2022/11/06 14:23:22;;;;;;;;;;;11.70;99.90;;;;;;5002292;28;19925;-88
2022/11/06 14:26:01;;;;;;;;;;;11.40;99.90;;;;;;5002832;28;19925;-91
2022/11/06 14:28:31;;;;;;;;;;;11.50;99.90;;;;;;5002316;28;19929;-90
2022/11/06 14:30:57;;;;;;;;;;;11.40;99.90;;;;;;5001954;28;20379;-87
2022/11/06 14:33:48;;;;;;;;;;;11.30;99.90;;;;;;5002615;28;19929;-90
2022/11/06 14:36:23;;;;;;;;;;;11.30;99.90;;;;;;5001844;28;19925;-89
2022/11/06 14:38:49;;;;;;;;;;;10.90;99.90;;;;;;5001559;28;19971;-88
2022/11/06 14:41:33;;;;;;;;;;;11.30;99.90;;;;;;4986375;28;19925;-89
2022/11/06 14:44:00;;;;;;;;;;;11.30;99.90;;;;;;5001252;28;19929;-87
2022/11/06 14:46:27;;;;;;;;;;;11.20;99.90;;;;;;5002106;28;19979;-89
2022/11/06 14:48:54;;;;;;;;;;;11.20;99.90;;;;;;5002162;28;19929;-87
2022/11/06 14:51:28;;;;;;;;;;;11.10;99.90;;;;;;5001584;28;20408;-89
2022/11/06 14:53:55;;;;;;;;;;;11.10;99.90;;;;;;5002517;28;19929;-89
2022/11/06 14:56:25;;;;;;;;;;;11.00;99.90;;;;;;5004742;28;19926;-88
2022/11/06 14:58:54;;;;;;;;;;;11.00;99.90;;;;;;5002542;28;20257;-90
2022/11/06 15:01:29;;;;;;;;;;;10.60;99.90;;;;;;5001221;28;20032;-88
2022/11/06 15:04:05;;;;;;;;;;;10.90;99.90;;;;;;5001680;28;19961;-89
2022/11/06 15:06:31;;;;;;;;;;;10.90;99.90;;;;;;5001715;28;19925;-88
2022/11/06 15:08:56;;;;;;;;;;;10.80;99.90;;;;;;5000932;28;20278;-90
2022/11/06 15:11:28;;;;;;;;;;;10.70;99.90;;;;;;5001599;28;19979;-88